Port Hope, MI (48468)

2:04 PM EST on February 14, 2016 (GMT -0500)
Eastwatch-by-the-Sea | | Change Station
CLOSE
Current Station
Personal Weather Station
Location: Port Hope, MI
Elevation: 565 ft
Nearby Weather Stations

Elev 565 ft 43.95 °N, 82.72 °W | Updated 3 seconds ago

Clear
Clear
18.1 °F
Feels Like 13 °F
N
3.4
Wind Variable Wind from SSW
Gusts 4.9 mph

Today
High -- | Low -- °F
--% Chance of Precip.
Yesterday
High -- | Low -- °F
Precip. -- in
Pressure 30.36 in
Visibility 10.0 miles
Clouds Clear
Windchill 13 °F
Dew Point -4 °F
Humidity 36%
Rainfall 0.00 in
Snow Depth Not available.
7:32 AM 5:58 PM
Waxing Crescent, 44% visible
METAR KBAX 141854Z AUTO 18006KT 10SM CLR M09/M18 A3036 RMK AO2 T10951179
Pressure 30.36 in
Visibility 10.0 miles
Clouds Clear
Windchill 13 °F
Dew Point -4 °F
Humidity 36%
Rainfall 0.00 in
Snow Depth Not available.
7:32 AM 5:58 PM
Waxing Crescent, 44% visible
METAR KBAX 141854Z AUTO 18006KT 10SM CLR M09/M18 A3036 RMK AO2 T10951179

10-Day Weather Forecast

Almanac

Astronomy

Feb. 14, 2016 Rise Set
Actual Time
Civil Twilight
Nautical Twilight
Astronomical Twilight
Moon
Length of Visible Light
Length of Day
Tomorrow will be .
, % of the Moon is Illuminated

Today's Extremes

State Highs State Lows

Community

WunderPhotos

Upload Photos

1,892,874 photos uploaded!

WunderBlog® & News

Nearby

Air Quality

  Air Quality AQ Index Pollutant
Not available.

Snow Depth

Station Depth Elevation

Earthquake Activity

City Distance Mag. Time & Date
Minimum magnitude displayed is 2.5.

Coastal Water Temperatures

Place Temperature

Stations

Nearby Weather Stations

Station Location Temp. Windchill Dew Point Humidity Wind Precip. Elev Updated Type
                   

Watches & Warnings

There are currently no watches in effect.